createdAt,value
2018-06-12T00:00:50.992Z,85.90
2018-06-12T00:03:20.139Z,86.70
2018-06-12T00:05:48.442Z,86.70
2018-06-12T00:08:17.759Z,87.00
2018-06-12T00:10:46.044Z,86.80
2018-06-12T00:13:14.339Z,86.80
2018-06-12T00:15:42.633Z,87.50
2018-06-12T00:18:10.923Z,87.60
2018-06-12T00:20:39.192Z,87.80
2018-06-12T00:23:07.531Z,88.00
2018-06-12T00:25:35.819Z,88.40
2018-06-12T00:28:04.129Z,88.10
2018-06-12T00:30:32.418Z,88.50
2018-06-12T00:33:00.706Z,88.20
2018-06-12T00:35:28.993Z,88.60
2018-06-12T00:37:57.341Z,88.50
2018-06-12T00:40:25.616Z,88.40
2018-06-12T00:42:54.053Z,88.50
2018-06-12T00:45:22.462Z,88.60
2018-06-12T00:47:50.745Z,88.60
2018-06-12T00:50:19.046Z,88.50
2018-06-12T00:52:47.374Z,88.30
2018-06-12T00:55:15.674Z,88.00
2018-06-12T00:57:43.971Z,88.00
2018-06-12T01:00:13.019Z,88.20
2018-06-12T01:02:41.629Z,88.10
2018-06-12T01:05:09.964Z,88.30
2018-06-12T01:07:38.253Z,88.30
2018-06-12T01:10:06.572Z,88.10
2018-06-12T01:12:34.873Z,88.30
2018-06-12T01:15:03.160Z,88.40
2018-06-12T01:17:31.490Z,88.60
2018-06-12T01:19:59.777Z,88.70
2018-06-12T01:22:28.095Z,88.90
2018-06-12T01:24:56.430Z,88.90
2018-06-12T01:27:24.722Z,89.40
2018-06-12T01:29:53.122Z,89.70
2018-06-12T01:32:21.424Z,89.70
2018-06-12T01:37:17.787Z,89.80
2018-06-12T01:39:46.089Z,90.00
2018-06-12T01:42:14.380Z,90.10
2018-06-12T01:44:42.676Z,90.10
2018-06-12T01:47:11.022Z,90.20
2018-06-12T01:49:39.933Z,90.20
2018-06-12T01:52:08.481Z,90.30
2018-06-12T01:54:36.938Z,90.30
2018-06-12T01:57:05.455Z,90.40
2018-06-12T01:59:33.728Z,90.30
2018-06-12T02:02:02.244Z,90.40
2018-06-12T02:04:30.850Z,90.40
2018-06-12T02:06:59.174Z,90.40
2018-06-12T02:09:28.170Z,90.30
2018-06-12T02:11:56.485Z,90.30
2018-06-12T02:14:24.821Z,90.40
2018-06-12T02:16:53.118Z,90.40
2018-06-12T02:19:21.434Z,90.30
2018-06-12T02:21:50.360Z,90.40
2018-06-12T02:24:19.237Z,90.40
2018-06-12T02:26:47.519Z,90.40
2018-06-12T02:31:43.970Z,90.50
2018-06-12T02:34:12.388Z,90.60
2018-06-12T02:36:40.910Z,90.60
2018-06-12T02:39:09.243Z,90.50
2018-06-12T02:41:37.542Z,90.60
2018-06-12T02:44:05.879Z,90.70
2018-06-12T02:46:34.176Z,90.70
2018-06-12T02:49:02.510Z,90.80
2018-06-12T02:51:30.802Z,90.80
2018-06-12T02:53:59.128Z,90.80
2018-06-12T02:56:28.033Z,90.90
2018-06-12T02:58:56.366Z,91.00
2018-06-12T03:01:24.649Z,90.90
2018-06-12T03:03:52.959Z,91.30
2018-06-12T03:06:21.257Z,90.90
2018-06-12T03:08:49.585Z,91.00
2018-06-12T03:11:17.974Z,90.90
2018-06-12T03:13:46.284Z,91.10
2018-06-12T03:16:14.580Z,90.90
2018-06-12T03:18:42.918Z,90.90
2018-06-12T03:21:11.224Z,90.90
2018-06-12T03:23:39.543Z,90.80
2018-06-12T03:26:08.792Z,90.90
2018-06-12T03:28:37.263Z,90.80
2018-06-12T03:31:05.578Z,90.90
2018-06-12T03:33:34.021Z,90.80
2018-06-12T03:36:02.490Z,90.80
2018-06-12T03:38:30.797Z,90.90
2018-06-12T03:40:59.223Z,90.80
2018-06-12T03:43:27.604Z,90.70
2018-06-12T03:45:55.893Z,90.50
2018-06-12T03:48:24.293Z,90.30
2018-06-12T03:50:52.637Z,90.20
2018-06-12T03:53:20.969Z,90.30
2018-06-12T03:55:49.301Z,90.20
2018-06-12T03:58:17.856Z,90.10
2018-06-12T04:00:46.193Z,90.00
2018-06-12T04:03:14.701Z,89.80
2018-06-12T04:05:43.130Z,90.00
2018-06-12T04:08:11.582Z,89.70
2018-06-12T04:10:40.042Z,89.70
2018-06-12T04:13:08.481Z,89.80
2018-06-12T04:15:36.809Z,89.80
2018-06-12T04:18:05.261Z,90.00
2018-06-12T04:20:33.845Z,89.60
2018-06-12T04:23:02.541Z,89.00
2018-06-12T04:25:30.873Z,89.10
2018-06-12T04:27:59.329Z,89.00
2018-06-12T04:30:28.018Z,89.10
2018-06-12T04:32:56.546Z,89.40
2018-06-12T04:35:27.785Z,89.00
2018-06-12T04:37:56.450Z,88.70
2018-06-12T04:40:24.924Z,88.80
2018-06-12T04:42:54.072Z,88.90
2018-06-12T04:45:22.579Z,88.90
2018-06-12T04:47:51.156Z,88.60
2018-06-12T04:50:19.466Z,88.80
2018-06-12T04:52:47.950Z,88.30
2018-06-12T04:55:16.388Z,88.40
2018-06-12T04:57:44.820Z,88.30
2018-06-12T05:00:13.125Z,88.40
2018-06-12T05:02:41.394Z,87.80
2018-06-12T05:05:09.696Z,87.80
2018-06-12T05:07:38.191Z,87.60
2018-06-12T05:10:06.925Z,88.10
2018-06-12T05:12:35.392Z,88.00
2018-06-12T05:15:03.744Z,87.50
2018-06-12T05:17:32.850Z,87.50
2018-06-12T05:20:01.193Z,87.50
2018-06-12T05:22:29.459Z,87.10
2018-06-12T05:24:57.791Z,86.50
2018-06-12T05:27:26.118Z,86.70
2018-06-12T05:29:54.590Z,85.60
2018-06-12T05:32:22.920Z,86.40
2018-06-12T05:34:51.388Z,85.50
2018-06-12T05:37:19.925Z,86.20
2018-06-12T05:39:48.280Z,85.70
2018-06-12T05:42:16.673Z,84.60
2018-06-12T05:44:45.219Z,85.30
2018-06-12T05:47:13.569Z,84.90
2018-06-12T05:49:42.074Z,84.80
2018-06-12T05:52:10.580Z,85.00
2018-06-12T05:54:39.157Z,85.10
2018-06-12T05:57:07.470Z,85.50
2018-06-12T05:59:35.749Z,85.50
2018-06-12T06:02:04.306Z,85.00
2018-06-12T06:04:32.667Z,84.70
2018-06-12T06:07:00.941Z,85.20
2018-06-12T06:09:29.239Z,84.90
2018-06-12T06:11:57.561Z,84.40
2018-06-12T06:14:25.869Z,84.00
2018-06-12T06:16:54.163Z,83.80
2018-06-12T06:19:22.489Z,83.90
2018-06-12T06:21:50.783Z,84.10
2018-06-12T06:24:19.079Z,82.90
2018-06-12T06:26:47.401Z,83.10
2018-06-12T06:31:43.750Z,83.20
2018-06-12T06:34:12.042Z,82.60
2018-06-12T06:36:40.486Z,82.10
2018-06-12T06:39:08.813Z,82.10
2018-06-12T06:42:40.441Z,81.50
2018-06-12T06:45:08.767Z,80.90
2018-06-12T06:47:37.061Z,80.40
2018-06-12T06:50:05.373Z,80.20
2018-06-12T06:55:01.685Z,80.20
2018-06-12T06:57:29.992Z,80.30
2018-06-12T06:59:58.276Z,80.30
2018-06-12T07:02:26.591Z,79.70
2018-06-12T07:04:54.931Z,78.90
2018-06-12T07:07:23.602Z,76.20
2018-06-12T07:09:52.129Z,75.80
2018-06-12T07:12:20.433Z,75.10
2018-06-12T07:14:48.734Z,76.20
2018-06-12T07:17:17.037Z,75.00
2018-06-12T07:19:45.333Z,75.00
2018-06-12T07:22:13.635Z,74.50
2018-06-12T07:24:41.947Z,75.00
2018-06-12T07:27:10.235Z,72.90
2018-06-12T07:29:38.517Z,73.80
2018-06-12T07:32:06.812Z,73.40
2018-06-12T07:34:35.105Z,73.70
2018-06-12T07:37:03.428Z,73.90
2018-06-12T07:39:31.714Z,74.80
2018-06-12T07:42:00.025Z,72.90
2018-06-12T07:44:28.335Z,72.10
2018-06-12T07:46:57.177Z,72.30
2018-06-12T07:49:25.460Z,70.00
2018-06-12T07:51:53.758Z,70.40
2018-06-12T07:54:22.051Z,70.60
2018-06-12T07:56:50.350Z,72.00
2018-06-12T07:59:18.663Z,70.00
2018-06-12T08:04:14.994Z,70.60
2018-06-12T08:06:43.327Z,71.50
2018-06-12T08:09:11.637Z,69.80
2018-06-12T08:11:39.940Z,68.70
2018-06-12T08:14:08.231Z,65.80
2018-06-12T08:16:36.524Z,67.40
2018-06-12T08:19:04.825Z,68.10
2018-06-12T08:21:33.153Z,68.10
2018-06-12T08:24:01.435Z,66.80
2018-06-12T08:26:29.729Z,67.80
2018-06-12T08:28:58.126Z,66.70
2018-06-12T08:31:27.824Z,64.30
2018-06-12T08:33:56.148Z,63.80
2018-06-12T08:36:24.713Z,64.10
2018-06-12T08:38:52.988Z,64.40
2018-06-12T08:41:21.292Z,63.30
2018-06-12T08:43:49.561Z,63.10
2018-06-12T08:46:17.856Z,64.10
2018-06-12T08:48:46.152Z,64.20
2018-06-12T08:51:14.473Z,61.50
2018-06-12T08:53:43.599Z,62.00
2018-06-12T08:56:11.878Z,62.70
2018-06-12T08:58:40.179Z,63.80
2018-06-12T09:01:08.491Z,64.40
2018-06-12T09:03:36.832Z,62.60
2018-06-12T09:06:05.181Z,62.20
2018-06-12T09:23:33.635Z,60.20
2018-06-12T09:26:01.947Z,61.00
2018-06-12T09:28:30.238Z,60.20
2018-06-12T09:30:58.546Z,60.90
2018-06-12T09:33:26.835Z,60.60
2018-06-12T09:35:59.388Z,60.20
2018-06-12T09:38:27.762Z,59.60
2018-06-12T09:40:56.078Z,61.30
2018-06-12T09:43:24.397Z,61.80
2018-06-12T09:45:52.708Z,60.20
2018-06-12T09:48:21.023Z,58.60
2018-06-12T09:50:49.330Z,58.80
2018-06-12T09:53:17.627Z,58.20
2018-06-12T09:55:45.950Z,59.80
2018-06-12T09:58:14.233Z,58.90
2018-06-12T10:00:47.737Z,57.60
2018-06-12T10:03:16.033Z,57.10
2018-06-12T10:05:44.344Z,57.70
2018-06-12T10:08:12.645Z,57.70
2018-06-12T10:10:41.014Z,57.20
2018-06-12T10:13:09.312Z,56.50
2018-06-12T10:15:37.632Z,56.20
2018-06-12T10:18:05.940Z,56.00
2018-06-12T10:20:34.254Z,57.00
2018-06-12T10:23:02.543Z,56.00
2018-06-12T10:25:30.901Z,57.10
2018-06-12T10:27:59.277Z,57.50
2018-06-12T10:30:27.582Z,56.70
2018-06-12T10:32:56.522Z,56.60
2018-06-12T10:35:24.831Z,58.60
2018-06-12T10:37:53.105Z,58.60
2018-06-12T10:40:21.407Z,59.10
2018-06-12T10:42:49.696Z,57.90
2018-06-12T10:45:18.107Z,57.70
2018-06-12T10:47:46.581Z,59.60
2018-06-12T10:50:14.906Z,58.60
2018-06-12T10:52:43.234Z,59.10
2018-06-12T10:55:11.598Z,57.60
2018-06-12T10:57:39.894Z,58.50
2018-06-12T11:00:08.199Z,56.40
2018-06-12T11:02:36.592Z,57.10
2018-06-12T11:07:33.025Z,56.50
2018-06-12T11:10:01.440Z,56.70
2018-06-12T11:12:29.832Z,56.20
2018-06-12T11:14:58.139Z,57.40
2018-06-12T11:17:26.524Z,57.00
2018-06-12T11:19:54.812Z,57.40
2018-06-12T11:22:23.178Z,58.40
2018-06-12T11:24:51.608Z,57.40
2018-06-12T11:27:19.957Z,57.60
2018-06-12T11:29:48.379Z,58.20
2018-06-12T11:32:17.027Z,58.20
2018-06-12T11:34:45.456Z,57.10
2018-06-12T11:37:13.779Z,56.90
2018-06-12T11:39:42.159Z,57.30
2018-06-12T11:42:10.437Z,55.70
2018-06-12T11:44:38.724Z,54.80
2018-06-12T11:47:07.234Z,55.20
2018-06-12T11:49:35.558Z,53.60
2018-06-12T11:52:03.925Z,54.50
2018-06-12T11:54:32.330Z,54.50
2018-06-12T11:57:00.709Z,53.50
2018-06-12T11:59:29.074Z,53.90
2018-06-12T12:01:57.371Z,55.40
2018-06-12T12:04:25.657Z,54.70
2018-06-12T12:06:53.966Z,52.70
2018-06-12T12:09:22.259Z,53.80
2018-06-12T12:11:50.550Z,53.90
2018-06-12T12:14:18.847Z,54.20
2018-06-12T12:16:47.275Z,54.00
2018-06-12T12:19:15.573Z,53.40
2018-06-12T12:21:44.039Z,52.00
2018-06-12T12:24:12.436Z,52.60
2018-06-12T12:26:40.757Z,52.80
2018-06-12T12:29:09.152Z,51.60
2018-06-12T12:31:37.560Z,52.60
2018-06-12T12:34:05.918Z,51.80
2018-06-12T12:36:34.322Z,52.50
2018-06-12T12:39:02.741Z,52.90
2018-06-12T12:41:31.037Z,54.20
2018-06-12T12:43:59.541Z,56.10
2018-06-12T12:46:27.951Z,52.80
2018-06-12T12:48:56.375Z,53.30
2018-06-12T12:51:24.669Z,52.50
2018-06-12T12:53:52.973Z,52.80
2018-06-12T12:56:21.395Z,52.80
2018-06-12T12:58:49.724Z,52.90
2018-06-12T13:01:18.141Z,52.90
2018-06-12T13:03:46.524Z,52.10
2018-06-12T13:06:14.950Z,52.60
2018-06-12T13:08:43.341Z,51.10
2018-06-12T13:11:11.755Z,49.50
2018-06-12T13:13:40.218Z,51.80
2018-06-12T13:16:08.546Z,49.90
2018-06-12T13:18:36.845Z,50.60
2018-06-12T13:21:05.178Z,49.00
2018-06-12T13:23:33.456Z,49.00
2018-06-12T13:26:01.750Z,49.10
2018-06-12T13:28:30.070Z,48.70
2018-06-12T13:30:58.427Z,47.80
2018-06-12T13:33:26.784Z,49.80
2018-06-12T13:35:55.110Z,51.10
2018-06-12T13:38:23.518Z,49.00
2018-06-12T13:40:51.820Z,49.40
2018-06-12T13:43:20.146Z,50.10
2018-06-12T13:45:48.470Z,51.10
2018-06-12T13:48:16.888Z,50.60
2018-06-12T13:50:45.324Z,51.50
2018-06-12T13:53:13.892Z,50.60
2018-06-12T13:55:42.201Z,51.60
2018-06-12T13:58:10.652Z,51.20
2018-06-12T14:00:38.958Z,52.60
2018-06-12T14:03:07.342Z,52.60
2018-06-12T14:05:35.754Z,53.30
2018-06-12T14:08:04.646Z,52.20
2018-06-12T14:10:33.669Z,51.60
2018-06-12T14:13:02.102Z,51.90
2018-06-12T14:15:30.408Z,52.40
2018-06-12T14:17:59.010Z,52.60
2018-06-12T14:20:27.553Z,52.80
2018-06-12T14:22:55.972Z,53.90
2018-06-12T14:25:24.255Z,55.20
2018-06-12T14:27:52.527Z,54.40
2018-06-12T14:30:20.917Z,55.20
2018-06-12T14:32:49.209Z,56.20
2018-06-12T14:35:17.523Z,57.10
2018-06-12T14:37:45.821Z,61.30
2018-06-12T14:40:14.244Z,64.30
2018-06-12T14:42:42.530Z,66.20
2018-06-12T14:45:10.960Z,67.30
2018-06-12T14:47:39.954Z,69.40
2018-06-12T14:50:09.334Z,70.60
2018-06-12T14:52:37.704Z,73.10
2018-06-12T14:55:06.886Z,73.00
2018-06-12T14:57:35.200Z,74.60
2018-06-12T15:00:03.614Z,74.60
2018-06-12T15:02:32.092Z,73.80
2018-06-12T15:05:00.416Z,76.60
2018-06-12T15:07:28.706Z,77.70
2018-06-12T15:09:57.322Z,79.90
2018-06-12T15:12:25.608Z,79.70
2018-06-12T15:14:54.641Z,80.50
2018-06-12T15:17:22.962Z,79.90
2018-06-12T15:19:51.278Z,81.00
2018-06-12T15:22:19.585Z,80.90
2018-06-12T15:24:48.146Z,85.30
2018-06-12T15:27:16.692Z,85.70
2018-06-12T15:29:45.026Z,86.40
2018-06-12T15:32:13.341Z,88.00
2018-06-12T15:34:42.165Z,88.70
2018-06-12T15:37:10.539Z,89.70
2018-06-12T15:39:38.812Z,89.80
2018-06-12T15:42:07.114Z,90.20
2018-06-12T15:44:42.171Z,90.40
2018-06-12T15:47:11.366Z,90.90
2018-06-12T15:49:39.659Z,90.60
2018-06-12T15:52:08.238Z,90.60
2018-06-12T15:54:36.545Z,90.10
2018-06-12T15:57:04.877Z,90.50
2018-06-12T15:59:33.168Z,90.90
2018-06-12T16:02:01.569Z,90.60
2018-06-12T16:04:29.871Z,90.70
2018-06-12T16:06:59.010Z,90.70
2018-06-12T16:09:27.322Z,90.80
2018-06-12T16:11:55.614Z,90.70
2018-06-12T16:14:24.054Z,91.20
2018-06-12T16:16:52.765Z,90.90
2018-06-12T16:19:21.106Z,91.00
2018-06-12T16:21:49.465Z,90.90
2018-06-12T16:24:17.757Z,91.40
2018-06-12T16:26:46.082Z,91.60
2018-06-12T16:29:14.374Z,91.90
2018-06-12T16:31:42.679Z,92.10
2018-06-12T16:34:11.308Z,92.70
2018-06-12T16:36:39.655Z,92.10
2018-06-12T16:39:08.346Z,92.10
2018-06-12T16:41:36.933Z,91.80
2018-06-12T16:44:05.338Z,91.90
2018-06-12T16:46:33.677Z,91.70
2018-06-12T16:49:01.971Z,92.10
2018-06-12T16:51:30.276Z,91.20
2018-06-12T16:53:58.568Z,91.40
2018-06-12T16:56:27.188Z,92.50
2018-06-12T16:58:55.771Z,92.60
2018-06-12T17:01:24.395Z,92.40
2018-06-12T17:03:53.029Z,92.30
2018-06-12T17:06:21.366Z,92.70
2018-06-12T17:08:50.346Z,92.20
2018-06-12T17:11:18.627Z,91.70
2018-06-12T17:13:47.271Z,91.30
2018-06-12T17:16:15.922Z,91.20
2018-06-12T17:18:44.513Z,92.60
2018-06-12T17:21:13.275Z,92.80
2018-06-12T17:23:42.128Z,92.70
2018-06-12T17:26:10.444Z,92.40
2018-06-12T17:28:38.958Z,92.60
2018-06-12T17:31:07.934Z,91.10
2018-06-12T17:33:36.477Z,91.20
2018-06-12T17:36:05.351Z,91.70
2018-06-12T17:38:33.623Z,91.70
2018-06-12T17:41:02.245Z,91.80
2018-06-12T17:43:30.556Z,92.40
2018-06-12T17:45:59.247Z,92.20
2018-06-12T17:48:27.552Z,92.30
2018-06-12T17:50:55.842Z,92.40
2018-06-12T17:53:24.521Z,92.60
2018-06-12T17:55:52.838Z,92.70
2018-06-12T17:58:21.153Z,93.60
2018-06-12T18:00:49.493Z,93.70
2018-06-12T18:03:17.783Z,92.80
2018-06-12T18:05:46.109Z,92.50
2018-06-12T18:08:14.420Z,92.40
2018-06-12T18:10:42.761Z,92.20
2018-06-12T18:13:11.052Z,92.10
2018-06-12T18:15:39.321Z,91.90
2018-06-12T18:18:07.618Z,92.10
2018-06-12T18:20:35.935Z,92.40
2018-06-12T18:23:04.225Z,92.30
2018-06-12T18:25:32.524Z,92.40
2018-06-12T18:28:00.827Z,92.80
2018-06-12T18:30:29.127Z,92.20
2018-06-12T18:32:57.410Z,92.20
2018-06-12T18:35:25.726Z,92.00
2018-06-12T18:37:54.003Z,92.40
2018-06-12T18:40:22.296Z,92.00
2018-06-12T18:42:50.571Z,92.00
2018-06-12T18:45:18.873Z,92.10
2018-06-12T18:47:47.207Z,92.30
2018-06-12T18:50:15.498Z,92.60
2018-06-12T18:52:43.772Z,92.60
2018-06-12T18:55:12.063Z,92.80
2018-06-12T18:57:40.362Z,92.00
2018-06-12T19:00:08.663Z,92.20
2018-06-12T19:02:36.949Z,92.10
2018-06-12T19:05:05.268Z,92.50
2018-06-12T19:07:33.553Z,92.80
2018-06-12T19:10:01.833Z,93.30
2018-06-12T19:12:30.116Z,92.70
2018-06-12T19:14:58.627Z,93.30
2018-06-12T19:17:26.895Z,92.20
2018-06-12T19:19:55.165Z,92.10
2018-06-12T19:22:23.463Z,91.70
2018-06-12T19:24:51.770Z,91.90
2018-06-12T19:27:20.161Z,93.00
2018-06-12T19:29:48.461Z,93.10
2018-06-12T19:32:16.762Z,92.60
2018-06-12T19:34:45.068Z,92.70
2018-06-12T19:37:13.420Z,92.50
2018-06-12T19:39:41.675Z,92.50
2018-06-12T19:42:10.038Z,92.10
2018-06-12T19:44:38.429Z,93.00
2018-06-12T19:47:06.710Z,93.00
2018-06-12T19:49:35.601Z,92.50
2018-06-12T19:52:03.895Z,92.40
2018-06-12T19:54:32.184Z,92.30
2018-06-12T19:57:00.449Z,92.50
2018-06-12T19:59:28.749Z,92.40
2018-06-12T20:01:57.098Z,92.40
2018-06-12T20:04:25.385Z,91.70
2018-06-12T20:06:53.697Z,92.00
2018-06-12T20:09:21.982Z,92.30
2018-06-12T20:11:50.355Z,91.80
2018-06-12T20:14:18.629Z,92.00
2018-06-12T20:16:46.973Z,91.60
2018-06-12T20:19:15.334Z,91.90
2018-06-12T20:24:11.687Z,91.50
2018-06-12T20:26:40.016Z,91.40
2018-06-12T20:29:08.309Z,91.90
2018-06-12T20:31:36.592Z,92.70
2018-06-12T20:34:05.016Z,92.10
2018-06-12T20:36:33.304Z,91.90
2018-06-12T20:39:01.602Z,92.00
2018-06-12T20:41:29.992Z,92.30
2018-06-12T20:43:58.302Z,92.50
2018-06-12T20:46:26.703Z,92.50
2018-06-12T20:48:54.994Z,93.30
2018-06-12T20:51:23.320Z,93.20
2018-06-12T20:53:51.605Z,93.30
2018-06-12T20:58:47.973Z,93.20
2018-06-12T21:01:16.262Z,93.30
2018-06-12T21:03:44.754Z,93.00
2018-06-12T21:06:13.294Z,92.40
2018-06-12T21:08:41.617Z,92.30
2018-06-12T21:11:09.900Z,93.10
2018-06-12T21:13:38.184Z,92.40
2018-06-12T21:16:06.466Z,92.20
2018-06-12T21:18:34.737Z,92.40
2018-06-12T21:21:03.031Z,92.60
2018-06-12T21:23:31.329Z,92.20
2018-06-12T21:25:59.612Z,92.10
2018-06-12T21:28:27.890Z,92.40
2018-06-12T21:30:56.265Z,93.00
2018-06-12T21:33:24.535Z,93.30
2018-06-12T21:35:52.826Z,92.20
2018-06-12T21:38:21.174Z,91.80
2018-06-12T21:40:49.504Z,91.90
2018-06-12T21:43:17.785Z,92.50
2018-06-12T21:45:46.360Z,92.60
2018-06-12T21:48:14.652Z,92.50
2018-06-12T21:50:42.944Z,92.70
2018-06-12T21:53:11.245Z,92.10
2018-06-12T21:55:39.534Z,92.40
2018-06-12T22:00:36.598Z,92.20
2018-06-12T22:03:04.926Z,91.70
2018-06-12T22:05:33.213Z,91.70
2018-06-12T22:08:01.506Z,91.80
2018-06-12T22:10:29.797Z,92.00
2018-06-12T22:12:58.183Z,92.10
2018-06-12T22:15:27.122Z,92.50
2018-06-12T22:17:56.109Z,92.10
2018-06-12T22:20:24.496Z,92.00
2018-06-12T22:22:52.806Z,92.00
2018-06-12T22:25:21.129Z,92.30
2018-06-12T22:27:49.427Z,92.60
2018-06-12T22:30:17.740Z,92.60
2018-06-12T22:32:46.034Z,92.70
2018-06-12T22:35:14.326Z,92.40
2018-06-12T22:37:42.678Z,91.90
2018-06-12T22:40:10.969Z,92.30
2018-06-12T22:42:39.315Z,92.10
2018-06-12T22:45:07.618Z,91.90
2018-06-12T22:47:35.953Z,92.10
2018-06-12T22:50:04.330Z,92.20
2018-06-12T22:52:32.653Z,92.20
2018-06-12T22:55:00.950Z,92.10
2018-06-12T22:57:29.234Z,92.40
2018-06-12T22:59:57.576Z,92.30
2018-06-12T23:02:25.854Z,92.40
2018-06-12T23:04:54.183Z,92.40
2018-06-12T23:07:22.501Z,92.40
2018-06-12T23:09:50.838Z,92.40
2018-06-12T23:12:19.137Z,92.50
2018-06-12T23:14:47.447Z,92.50
2018-06-12T23:17:15.809Z,92.00
2018-06-12T23:19:55.530Z,92.30
2018-06-12T23:22:23.834Z,92.20
2018-06-12T23:24:52.121Z,92.20
2018-06-12T23:27:20.418Z,92.40
2018-06-12T23:29:48.757Z,92.50
2018-06-12T23:32:17.037Z,92.80
2018-06-12T23:34:45.337Z,93.40
2018-06-12T23:39:41.986Z,93.00
2018-06-12T23:42:10.258Z,92.90
2018-06-12T23:44:38.592Z,92.80
2018-06-12T23:47:06.893Z,93.00
2018-06-12T23:49:35.174Z,93.00
2018-06-12T23:52:03.436Z,93.00
2018-06-12T23:54:31.790Z,93.00
2018-06-12T23:57:00.078Z,93.00
2018-06-12T23:59:28.518Z,93.00
